Etusivu
METAR-TAF:

METAR-TAF

Lentoasemat :

The Dalles, Oregon, Yhdysvallat

Leveyspiiri: 45-37-07N, Pituuspiiri: 121-10-02W, korkeus merenpinnasta: 75 m

Tämänhetkinen sää

Tämä raportti tehtiin 38 minuuttia sitten, kello 12.53 UTC
tyyntä
Lämpötila 8°C
Kosteus 76%
Ilmanpaine 1023 hPa
Näkyvyys: 16.1 km
selkeää

METAR: KDLS 291253Z AUTO 00000KT 10SM CLR 08/04 A3021 RMK AO2 SLP229 T00780039

Aika: 06:31 (13:31 UTC)

Sääennuste

Tämä raportti tehtiin 2 tuntia ja 11 minuuttia sitten, kello 11.20 UTC
Ennuste voimassa 29. päivästä klo 12 UTC - 30. päivään klo 12 UTC
Tuuli 4 kn eri suunnista
Näkyvyys: 10 km
selkeää

TAF: KDLS 291120Z 2912/3012 VRB04KT P6SM SKC

Säähavainnot ja -ennusteet yli 4000 lentoasemalta (METAR- ja TAF-raportit).

Käytössä olevat sääasemat on merkitty karttaan keltaisilla ja punaisilla pisteillä.

Aseta hiiri pisteen päälle nähdäksesi sääaseman nimen.

Klikkaa sitten nähdäksesi säähavainnot ja -ennusteet.

Kartan vaihtaminen: klikkaa mustalla rastilla varustettuja vihreitä pisteitä, niin voit zoomata sisään; viivalla varustettua vihreää pistettä, niin voit zoomata ulos tai vihreitä nuolia, niin pääset viereisille kartoille.


METAR-TAF: